createdAt,value
2018-12-15T00:00:49.124Z,78.70
2018-12-15T00:05:55.997Z,78.40
2018-12-15T00:11:00.839Z,79.20
2018-12-15T00:16:05.813Z,79.40
2018-12-15T00:21:10.624Z,80.40
2018-12-15T00:26:15.506Z,80.30
2018-12-15T00:31:20.464Z,81.10
2018-12-15T00:36:25.503Z,81.40
2018-12-15T00:41:30.449Z,81.50
2018-12-15T00:46:35.403Z,80.70
2018-12-15T00:51:40.244Z,80.70
2018-12-15T00:56:45.265Z,80.90
2018-12-15T01:01:50.231Z,80.30
2018-12-15T01:06:55.187Z,80.30
2018-12-15T01:12:00.176Z,80.10
2018-12-15T01:17:05.081Z,79.70
2018-12-15T01:22:10.004Z,80.20
2018-12-15T01:27:14.961Z,82.00
2018-12-15T01:32:20.015Z,81.70
2018-12-15T01:37:24.862Z,80.60
2018-12-15T01:42:29.783Z,81.10
2018-12-15T01:47:34.853Z,81.70
2018-12-15T01:52:39.608Z,80.60
2018-12-15T01:57:44.500Z,81.20
2018-12-15T02:02:49.296Z,81.10
2018-12-15T02:13:29.168Z,81.40
2018-12-15T02:18:34.259Z,81.30
2018-12-15T02:23:39.217Z,81.40
2018-12-15T02:28:44.269Z,82.30
2018-12-15T02:33:50.212Z,82.20
2018-12-15T02:38:55.079Z,83.30
2018-12-15T02:44:00.182Z,83.40
2018-12-15T02:49:05.150Z,83.60
2018-12-15T02:54:10.127Z,82.50
2018-12-15T02:59:15.165Z,83.00
2018-12-15T03:04:20.032Z,82.30
2018-12-15T03:09:25.055Z,80.30
2018-12-15T03:14:30.001Z,80.30
2018-12-15T03:19:35.357Z,80.60
2018-12-15T03:24:40.331Z,79.20
2018-12-15T03:29:45.290Z,78.20
2018-12-15T03:34:50.139Z,77.90
2018-12-15T03:39:54.999Z,77.30
2018-12-15T03:44:59.873Z,78.50
2018-12-15T03:50:05.116Z,79.20
2018-12-15T03:55:09.905Z,78.90
2018-12-15T04:00:14.952Z,79.30
2018-12-15T04:05:19.772Z,79.80
2018-12-15T04:10:24.665Z,79.50
2018-12-15T04:15:29.521Z,78.50
2018-12-15T04:20:34.430Z,78.20
2018-12-15T04:25:40.279Z,78.80
2018-12-15T04:30:45.128Z,78.20
2018-12-15T04:35:49.990Z,79.30
2018-12-15T04:40:54.939Z,80.70
2018-12-15T04:45:59.863Z,79.90
2018-12-15T04:51:04.843Z,80.00
2018-12-15T04:56:09.782Z,79.90
2018-12-15T05:01:14.831Z,80.10
2018-12-15T05:06:19.764Z,80.00
2018-12-15T05:11:24.743Z,80.00
2018-12-15T05:16:29.586Z,79.60
2018-12-15T05:21:34.394Z,80.00
2018-12-15T05:26:39.262Z,81.20
2018-12-15T05:31:44.111Z,82.20
2018-12-15T05:36:49.019Z,81.50
2018-12-15T05:41:53.901Z,81.70
2018-12-15T05:46:58.947Z,82.30
2018-12-15T05:52:03.972Z,82.60
2018-12-15T05:57:08.847Z,82.40
2018-12-15T06:02:15.781Z,82.80
2018-12-15T06:07:20.665Z,83.10
2018-12-15T06:12:25.403Z,83.60
2018-12-15T06:17:30.065Z,84.00
2018-12-15T06:22:35.120Z,83.30
2018-12-15T06:27:40.167Z,84.30
2018-12-15T06:32:45.048Z,84.30
2018-12-15T06:37:50.164Z,84.40
2018-12-15T06:42:56.269Z,85.70
2018-12-15T06:48:01.076Z,86.00
2018-12-15T06:53:05.945Z,86.10
2018-12-15T06:58:10.788Z,85.80
2018-12-15T07:03:15.648Z,86.30
2018-12-15T07:08:20.505Z,86.60
2018-12-15T07:13:25.308Z,85.90
2018-12-15T07:18:30.159Z,86.20
2018-12-15T07:23:35.107Z,86.50
2018-12-15T07:28:40.041Z,86.30
2018-12-15T07:33:44.884Z,86.20
2018-12-15T07:38:50.770Z,85.70
2018-12-15T07:43:55.617Z,85.50
2018-12-15T07:49:00.572Z,85.20
2018-12-15T07:54:05.521Z,85.30
2018-12-15T07:59:10.336Z,85.30
2018-12-15T08:04:15.497Z,85.00
2018-12-15T08:09:20.240Z,84.10
2018-12-15T08:14:25.362Z,84.70
2018-12-15T08:19:30.241Z,85.30
2018-12-15T08:24:34.973Z,84.50
2018-12-15T08:29:47.689Z,84.80
2018-12-15T08:34:53.647Z,85.80
2018-12-15T08:39:58.884Z,86.10
2018-12-15T08:45:03.786Z,86.30
2018-12-15T08:50:09.054Z,85.80
2018-12-15T08:55:13.884Z,86.30
2018-12-15T09:00:18.921Z,86.00
2018-12-15T09:05:23.800Z,85.30
2018-12-15T09:10:30.796Z,85.30
2018-12-15T09:15:36.914Z,84.90
2018-12-15T09:20:41.828Z,85.30
2018-12-15T09:25:46.628Z,85.70
2018-12-15T09:30:51.395Z,85.00
2018-12-15T09:35:56.396Z,84.70
2018-12-15T09:41:01.381Z,85.70
2018-12-15T09:46:06.329Z,85.50
2018-12-15T09:51:11.276Z,85.10
2018-12-15T09:56:16.129Z,85.30
2018-12-15T10:01:21.147Z,85.30
2018-12-15T10:06:26.014Z,84.60
2018-12-15T10:11:31.107Z,85.20
2018-12-15T10:16:36.097Z,85.50
2018-12-15T10:21:42.028Z,85.80
2018-12-15T10:26:47.440Z,85.50
2018-12-15T10:31:57.250Z,85.20
2018-12-15T10:37:02.259Z,84.90
2018-12-15T10:42:07.204Z,84.10
2018-12-15T10:47:12.156Z,84.00
2018-12-15T10:52:19.156Z,85.00
2018-12-15T10:57:24.141Z,84.40
2018-12-15T11:02:28.931Z,86.00
2018-12-15T11:07:34.333Z,85.20
2018-12-15T11:12:39.353Z,84.90
2018-12-15T11:17:44.182Z,85.60
2018-12-15T11:22:49.148Z,85.50
2018-12-15T11:27:54.715Z,85.80
2018-12-15T11:32:59.656Z,85.90
2018-12-15T11:38:04.620Z,86.30
2018-12-15T11:43:10.574Z,87.00
2018-12-15T11:48:15.661Z,86.60
2018-12-15T11:53:20.959Z,86.90
2018-12-15T11:58:26.379Z,87.20
2018-12-15T12:03:31.409Z,87.40
2018-12-15T12:08:36.646Z,87.30
2018-12-15T12:13:41.589Z,86.80
2018-12-15T12:18:46.662Z,85.60
2018-12-15T12:23:51.482Z,85.10
2018-12-15T12:28:58.457Z,86.00
2018-12-15T12:34:03.606Z,85.10
2018-12-15T12:39:09.298Z,85.50
2018-12-15T12:44:14.023Z,85.80
2018-12-15T12:49:18.982Z,85.20
2018-12-15T12:54:23.933Z,86.00
2018-12-15T12:59:28.986Z,85.70
2018-12-15T13:04:33.827Z,85.60
2018-12-15T13:09:38.684Z,86.20
2018-12-15T13:14:43.728Z,86.80
2018-12-15T13:19:48.569Z,86.80
2018-12-15T13:24:53.415Z,86.30
2018-12-15T13:29:58.667Z,87.40
2018-12-15T13:35:03.564Z,87.20
2018-12-15T13:40:09.429Z,87.40
2018-12-15T13:45:14.420Z,86.60
2018-12-15T13:50:19.177Z,87.40
2018-12-15T13:55:24.154Z,87.10
2018-12-15T14:00:28.964Z,87.00
2018-12-15T14:05:33.840Z,87.60
2018-12-15T14:10:38.750Z,86.90
2018-12-15T14:15:44.016Z,87.70
2018-12-15T14:20:48.939Z,86.90
2018-12-15T14:25:53.921Z,87.10
2018-12-15T14:30:59.053Z,87.30
2018-12-15T14:36:04.000Z,87.30
2018-12-15T14:41:08.854Z,87.60
2018-12-15T14:46:13.815Z,87.30
2018-12-15T14:51:18.757Z,87.90
2018-12-15T14:56:23.708Z,87.20
2018-12-15T15:01:28.661Z,87.60
2018-12-15T15:06:33.596Z,88.40
2018-12-15T15:11:38.538Z,88.20
2018-12-15T15:16:43.591Z,88.10
2018-12-15T15:21:48.531Z,88.50
2018-12-15T15:26:53.289Z,89.10
2018-12-15T15:31:58.226Z,89.50
2018-12-15T15:37:02.983Z,88.50
2018-12-15T15:42:07.932Z,89.20
2018-12-15T15:47:12.859Z,89.30
2018-12-15T15:52:17.744Z,89.80
2018-12-15T15:57:22.653Z,90.10
2018-12-15T16:02:27.587Z,89.80
2018-12-15T16:07:32.486Z,88.90
2018-12-15T16:12:37.420Z,89.50
2018-12-15T16:17:42.328Z,89.00
2018-12-15T16:22:47.316Z,89.00
2018-12-15T16:27:52.255Z,89.80
2018-12-15T16:32:57.296Z,89.60
2018-12-15T16:38:02.154Z,89.20
2018-12-15T16:43:07.216Z,89.00
2018-12-15T16:48:12.244Z,89.10
2018-12-15T16:53:17.126Z,88.90
2018-12-15T16:58:22.240Z,89.50
2018-12-15T17:03:30.458Z,88.90
2018-12-15T17:08:33.898Z,89.80
2018-12-15T17:13:38.756Z,90.10
2018-12-15T17:18:43.802Z,88.80
2018-12-15T17:23:48.721Z,88.70
2018-12-15T17:28:53.787Z,88.20
2018-12-15T17:33:58.631Z,88.50
2018-12-15T17:39:04.146Z,88.70
2018-12-15T17:44:10.107Z,89.00
2018-12-15T17:49:16.016Z,89.20
2018-12-15T17:54:20.735Z,89.30
2018-12-15T17:59:25.708Z,89.50
2018-12-15T18:04:31.883Z,89.30
2018-12-15T18:09:36.725Z,89.10
2018-12-15T18:14:41.697Z,89.50
2018-12-15T18:19:46.521Z,90.00
2018-12-15T18:24:56.531Z,90.00
2018-12-15T18:30:01.478Z,89.70
2018-12-15T18:35:06.702Z,88.80
2018-12-15T18:40:11.551Z,89.70
2018-12-15T18:45:16.576Z,89.60
2018-12-15T18:50:21.429Z,90.00
2018-12-15T18:55:26.493Z,89.60
2018-12-15T19:00:31.443Z,89.20
2018-12-15T19:05:36.507Z,89.60
2018-12-15T19:10:41.313Z,89.30
2018-12-15T19:15:46.276Z,90.00
2018-12-15T19:20:51.135Z,90.10
2018-12-15T19:25:56.193Z,90.00
2018-12-15T19:31:01.038Z,90.00
2018-12-15T19:36:06.023Z,89.80
2018-12-15T19:41:11.069Z,89.80
2018-12-15T19:46:15.966Z,89.50
2018-12-15T19:51:20.884Z,89.40
2018-12-15T19:56:25.870Z,89.50
2018-12-15T20:01:30.830Z,89.40
2018-12-15T20:06:35.851Z,89.30
2018-12-15T20:11:40.781Z,90.20
2018-12-15T20:16:46.072Z,90.00
2018-12-15T20:21:51.073Z,89.80
2018-12-15T20:26:55.932Z,90.20
2018-12-15T20:32:01.116Z,90.00
2018-12-15T20:37:06.139Z,90.10
2018-12-15T20:42:11.193Z,90.10
2018-12-15T20:47:16.122Z,90.40
2018-12-15T20:52:21.004Z,89.40
2018-12-15T20:57:25.836Z,89.00
2018-12-15T21:02:31.006Z,88.80
2018-12-15T21:07:36.064Z,89.80
2018-12-15T21:12:42.152Z,90.40
2018-12-15T21:17:47.074Z,90.10
2018-12-15T21:22:51.938Z,90.00
2018-12-15T21:27:56.935Z,89.20
2018-12-15T21:33:01.941Z,89.10
2018-12-15T21:38:07.676Z,89.20
2018-12-15T21:43:12.629Z,89.30
2018-12-15T21:48:17.683Z,89.00
2018-12-15T21:53:22.525Z,89.10
2018-12-15T21:58:27.437Z,89.20
2018-12-15T22:03:32.305Z,88.70
2018-12-15T22:08:37.042Z,88.80
2018-12-15T22:13:42.008Z,88.70
2018-12-15T22:18:46.873Z,89.00
2018-12-15T22:23:52.001Z,88.70
2018-12-15T22:28:56.837Z,89.20
2018-12-15T22:34:01.663Z,89.80
2018-12-15T22:39:07.996Z,89.90
2018-12-15T22:44:14.390Z,88.90
2018-12-15T22:49:19.626Z,90.00
2018-12-15T22:54:24.575Z,89.80
2018-12-15T22:59:29.524Z,89.20
2018-12-15T23:04:34.346Z,89.50
2018-12-15T23:09:39.269Z,89.40
2018-12-15T23:14:44.132Z,90.10
2018-12-15T23:19:48.983Z,89.60
2018-12-15T23:24:53.932Z,89.00
2018-12-15T23:29:58.790Z,88.70
2018-12-15T23:35:04.174Z,89.20
2018-12-15T23:40:09.308Z,89.40
2018-12-15T23:45:14.337Z,88.40
2018-12-15T23:50:19.215Z,89.70
2018-12-15T23:55:24.256Z,88.50
